Current Weather

Goshen Muni

Goshen, Indiana (KGSH)

Report from: Tuesday, June 18, 2024 6:53 AM EDT
Current time: Tuesday, June 18, 2024 7:18 AM EDT

Nearby weather – Weather history – Daily summaries
Weather forecast

Temperature24.4°C (75.9°F)
Dew point19.4°C (66.9°F)
Winds 7 kts (3.6 m/s, 8.1 mph) South (170°)
Visibility10 mi. (16.1 km)
Clouds Sky clear
Altimeter30.05 in.Hg (1018 mB)
Relative humidity74 %
Density altitude1,276 ft. (389 m)
Sea-level pressure101.7 kPa (1017 mB, 30.03 in.Hg)
Remarks Fully automated report
Automated weather observing station with precipitation discriminator
Flight conditions Visual Meteorological Conditions
Raw dataKGSH 181053Z AUTO 17007KT 10SM CLR 24/19 A3005 RMK AO2 SLP168 T02440194
An error has occurred. This application may no longer respond until reloaded. Reload 🗙